sensor_id;sensor_type;location;lat;lon;timestamp;temperature;humidity
39919;DHT22;25589;51.552;13.424;2022-09-09T00:02:20;16.10;99.90
39919;DHT22;25589;51.552;13.424;2022-09-09T00:04:59;16.40;99.90
39919;DHT22;25589;51.552;13.424;2022-09-09T00:07:41;16.00;99.90
39919;DHT22;25589;51.552;13.424;2022-09-09T00:15:19;15.70;99.90
39919;DHT22;25589;51.552;13.424;2022-09-09T00:18:02;15.90;99.90
39919;DHT22;25589;51.552;13.424;2022-09-09T00:20:34;15.80;99.90
39919;DHT22;25589;51.552;13.424;2022-09-09T00:23:11;16.10;99.90
39919;DHT22;25589;51.552;13.424;2022-09-09T00:26:41;15.70;99.90
39919;DHT22;25589;51.552;13.424;2022-09-09T00:29:15;15.70;99.90
39919;DHT22;25589;51.552;13.424;2022-09-09T00:31:44;15.70;99.90
39919;DHT22;25589;51.552;13.424;2022-09-09T00:34:13;15.70;99.90
39919;DHT22;25589;51.552;13.424;2022-09-09T00:36:41;15.40;99.90
39919;DHT22;25589;51.552;13.424;2022-09-09T00:39:55;16.00;99.90
39919;DHT22;25589;51.552;13.424;2022-09-09T00:42:25;15.70;99.90
39919;DHT22;25589;51.552;13.424;2022-09-09T00:47:44;15.50;99.90
39919;DHT22;25589;51.552;13.424;2022-09-09T00:58:18;15.60;99.90
39919;DHT22;25589;51.552;13.424;2022-09-09T01:00:51;15.60;99.90
39919;DHT22;25589;51.552;13.424;2022-09-09T01:03:41;15.50;99.90
39919;DHT22;25589;51.552;13.424;2022-09-09T01:17:21;15.40;99.90
39919;DHT22;25589;51.552;13.424;2022-09-09T01:28:22;15.30;99.90
39919;DHT22;25589;51.552;13.424;2022-09-09T01:30:53;15.10;99.90
39919;DHT22;25589;51.552;13.424;2022-09-09T01:33:22;15.20;99.90
39919;DHT22;25589;51.552;13.424;2022-09-09T01:41:01;15.20;99.90
39919;DHT22;25589;51.552;13.424;2022-09-09T01:43:37;15.10;99.90
39919;DHT22;25589;51.552;13.424;2022-09-09T01:46:03;15.10;99.90
39919;DHT22;25589;51.552;13.424;2022-09-09T01:48:31;15.20;99.90
39919;DHT22;25589;51.552;13.424;2022-09-09T01:51:07;14.60;99.90
39919;DHT22;25589;51.552;13.424;2022-09-09T01:53:33;15.10;99.90
39919;DHT22;25589;51.552;13.424;2022-09-09T01:59:16;15.00;99.90
39919;DHT22;25589;51.552;13.424;2022-09-09T02:06:55;14.90;99.90
39919;DHT22;25589;51.552;13.424;2022-09-09T02:09:30;14.60;99.90
39919;DHT22;25589;51.552;13.424;2022-09-09T02:12:18;15.00;99.90
39919;DHT22;25589;51.552;13.424;2022-09-09T02:15:03;14.90;99.90
39919;DHT22;25589;51.552;13.424;2022-09-09T02:17:41;14.80;99.90
39919;DHT22;25589;51.552;13.424;2022-09-09T02:20:15;14.90;99.90
39919;DHT22;25589;51.552;13.424;2022-09-09T02:22:53;15.00;99.90
39919;DHT22;25589;51.552;13.424;2022-09-09T02:25:24;14.80;99.90
39919;DHT22;25589;51.552;13.424;2022-09-09T02:27:54;14.70;99.90
39919;DHT22;25589;51.552;13.424;2022-09-09T02:30:20;14.40;99.90
39919;DHT22;25589;51.552;13.424;2022-09-09T02:32:54;14.70;99.90
39919;DHT22;25589;51.552;13.424;2022-09-09T02:35:38;14.70;99.90
39919;DHT22;25589;51.552;13.424;2022-09-09T02:38:09;14.70;99.90
39919;DHT22;25589;51.552;13.424;2022-09-09T02:40:37;14.80;99.90
39919;DHT22;25589;51.552;13.424;2022-09-09T02:43:03;14.70;99.90
39919;DHT22;25589;51.552;13.424;2022-09-09T02:45:41;14.70;99.90
39919;DHT22;25589;51.552;13.424;2022-09-09T02:48:22;14.60;99.90
39919;DHT22;25589;51.552;13.424;2022-09-09T02:51:06;14.60;99.90
39919;DHT22;25589;51.552;13.424;2022-09-09T02:54:09;14.70;99.90
39919;DHT22;25589;51.552;13.424;2022-09-09T02:59:16;14.60;99.90
39919;DHT22;25589;51.552;13.424;2022-09-09T03:01:42;14.50;99.90
39919;DHT22;25589;51.552;13.424;2022-09-09T03:04:10;14.50;99.90
39919;DHT22;25589;51.552;13.424;2022-09-09T03:06:35;14.50;99.90
39919;DHT22;25589;51.552;13.424;2022-09-09T03:09:11;14.50;99.90
39919;DHT22;25589;51.552;13.424;2022-09-09T03:11:37;14.50;99.90
39919;DHT22;25589;51.552;13.424;2022-09-09T03:14:04;14.70;99.90
39919;DHT22;25589;51.552;13.424;2022-09-09T03:16:31;14.60;99.90
39919;DHT22;25589;51.552;13.424;2022-09-09T03:18:58;14.20;99.90
39919;DHT22;25589;51.552;13.424;2022-09-09T03:21:24;14.20;99.90
39919;DHT22;25589;51.552;13.424;2022-09-09T03:23:50;14.50;99.90
39919;DHT22;25589;51.552;13.424;2022-09-09T03:26:16;14.50;99.90
39919;DHT22;25589;51.552;13.424;2022-09-09T03:28:44;14.40;99.90
39919;DHT22;25589;51.552;13.424;2022-09-09T03:31:12;14.40;99.90
39919;DHT22;25589;51.552;13.424;2022-09-09T03:33:40;14.40;99.90
39919;DHT22;25589;51.552;13.424;2022-09-09T03:36:08;14.30;99.90
39919;DHT22;25589;51.552;13.424;2022-09-09T03:38:34;14.00;99.90
39919;DHT22;25589;51.552;13.424;2022-09-09T03:41:00;14.50;99.90
39919;DHT22;25589;51.552;13.424;2022-09-09T03:43:28;14.30;99.90
39919;DHT22;25589;51.552;13.424;2022-09-09T03:48:25;14.60;99.90
39919;DHT22;25589;51.552;13.424;2022-09-09T03:50:54;14.20;99.90
39919;DHT22;25589;51.552;13.424;2022-09-09T03:53:22;14.20;99.90
39919;DHT22;25589;51.552;13.424;2022-09-09T03:55:52;14.40;99.90
39919;DHT22;25589;51.552;13.424;2022-09-09T03:58:21;14.20;99.90
39919;DHT22;25589;51.552;13.424;2022-09-09T04:00:55;14.10;99.90
39919;DHT22;25589;51.552;13.424;2022-09-09T04:03:21;14.10;99.90
39919;DHT22;25589;51.552;13.424;2022-09-09T04:05:58;14.50;99.90
39919;DHT22;25589;51.552;13.424;2022-09-09T04:08:26;14.20;99.90
39919;DHT22;25589;51.552;13.424;2022-09-09T04:10:53;14.20;99.90
39919;DHT22;25589;51.552;13.424;2022-09-09T04:13:23;14.20;99.90
39919;DHT22;25589;51.552;13.424;2022-09-09T04:15:54;14.20;99.90
39919;DHT22;25589;51.552;13.424;2022-09-09T04:18:21;14.20;99.90
39919;DHT22;25589;51.552;13.424;2022-09-09T04:20:48;14.10;99.90
39919;DHT22;25589;51.552;13.424;2022-09-09T04:23:14;14.20;99.90
39919;DHT22;25589;51.552;13.424;2022-09-09T04:28:19;13.60;99.90
39919;DHT22;25589;51.552;13.424;2022-09-09T04:30:45;14.00;99.90
39919;DHT22;25589;51.552;13.424;2022-09-09T04:33:12;14.00;99.90
39919;DHT22;25589;51.552;13.424;2022-09-09T04:35:38;14.20;99.90
39919;DHT22;25589;51.552;13.424;2022-09-09T04:38:05;14.00;99.90
39919;DHT22;25589;51.552;13.424;2022-09-09T04:40:32;14.00;99.90
39919;DHT22;25589;51.552;13.424;2022-09-09T04:42:59;14.10;99.90
39919;DHT22;25589;51.552;13.424;2022-09-09T04:45:25;14.20;99.90
39919;DHT22;25589;51.552;13.424;2022-09-09T04:47:52;14.50;99.90
39919;DHT22;25589;51.552;13.424;2022-09-09T04:50:19;14.10;99.90
39919;DHT22;25589;51.552;13.424;2022-09-09T04:52:46;13.80;99.90
39919;DHT22;25589;51.552;13.424;2022-09-09T04:57:41;14.20;99.90
39919;DHT22;25589;51.552;13.424;2022-09-09T05:00:11;14.50;99.90
39919;DHT22;25589;51.552;13.424;2022-09-09T05:02:40;14.30;99.90
39919;DHT22;25589;51.552;13.424;2022-09-09T05:05:07;14.30;99.90
39919;DHT22;25589;51.552;13.424;2022-09-09T05:07:34;14.30;99.90
39919;DHT22;25589;51.552;13.424;2022-09-09T05:10:00;14.30;99.90
39919;DHT22;25589;51.552;13.424;2022-09-09T05:12:25;14.30;99.90
39919;DHT22;25589;51.552;13.424;2022-09-09T05:14:52;14.40;99.90
39919;DHT22;25589;51.552;13.424;2022-09-09T05:17:18;14.40;99.90
39919;DHT22;25589;51.552;13.424;2022-09-09T05:19:44;14.40;99.90
39919;DHT22;25589;51.552;13.424;2022-09-09T05:22:10;14.40;99.90
39919;DHT22;25589;51.552;13.424;2022-09-09T05:24:42;14.40;99.90
39919;DHT22;25589;51.552;13.424;2022-09-09T05:27:09;14.50;99.90
39919;DHT22;25589;51.552;13.424;2022-09-09T05:29:38;14.80;99.90
39919;DHT22;25589;51.552;13.424;2022-09-09T05:32:05;14.40;99.90
39919;DHT22;25589;51.552;13.424;2022-09-09T05:34:31;14.60;99.90
39919;DHT22;25589;51.552;13.424;2022-09-09T05:36:57;14.70;99.90
39919;DHT22;25589;51.552;13.424;2022-09-09T05:39:24;14.70;99.90
39919;DHT22;25589;51.552;13.424;2022-09-09T05:41:50;15.20;99.90
39919;DHT22;25589;51.552;13.424;2022-09-09T05:44:16;14.30;99.90
39919;DHT22;25589;51.552;13.424;2022-09-09T05:46:42;14.50;99.90
39919;DHT22;25589;51.552;13.424;2022-09-09T05:49:08;15.30;99.90
39919;DHT22;25589;51.552;13.424;2022-09-09T05:51:35;15.00;99.90
39919;DHT22;25589;51.552;13.424;2022-09-09T05:54:05;15.10;99.90
39919;DHT22;25589;51.552;13.424;2022-09-09T05:56:35;15.20;99.90
39919;DHT22;25589;51.552;13.424;2022-09-09T05:59:01;15.20;99.90
39919;DHT22;25589;51.552;13.424;2022-09-09T06:01:30;15.30;99.90
39919;DHT22;25589;51.552;13.424;2022-09-09T06:03:57;15.40;99.90
39919;DHT22;25589;51.552;13.424;2022-09-09T06:06:31;15.50;99.90
39919;DHT22;25589;51.552;13.424;2022-09-09T06:08:58;15.50;99.90
39919;DHT22;25589;51.552;13.424;2022-09-09T06:11:30;15.70;99.90
39919;DHT22;25589;51.552;13.424;2022-09-09T06:13:58;15.70;99.90
39919;DHT22;25589;51.552;13.424;2022-09-09T06:16:26;15.80;99.90
39919;DHT22;25589;51.552;13.424;2022-09-09T06:18:53;15.90;99.90
39919;DHT22;25589;51.552;13.424;2022-09-09T06:21:27;15.90;99.90
39919;DHT22;25589;51.552;13.424;2022-09-09T06:23:53;16.10;99.90
39919;DHT22;25589;51.552;13.424;2022-09-09T06:26:32;16.10;99.90
39919;DHT22;25589;51.552;13.424;2022-09-09T06:29:01;16.30;99.90
39919;DHT22;25589;51.552;13.424;2022-09-09T06:31:30;16.20;99.90
39919;DHT22;25589;51.552;13.424;2022-09-09T06:34:00;16.40;99.90
39919;DHT22;25589;51.552;13.424;2022-09-09T06:36:28;16.50;99.90
39919;DHT22;25589;51.552;13.424;2022-09-09T06:38:55;16.50;99.90
39919;DHT22;25589;51.552;13.424;2022-09-09T06:41:22;16.50;99.90
39919;DHT22;25589;51.552;13.424;2022-09-09T06:43:49;16.60;99.90
39919;DHT22;25589;51.552;13.424;2022-09-09T06:46:23;16.70;99.90
39919;DHT22;25589;51.552;13.424;2022-09-09T06:48:50;16.80;99.90
39919;DHT22;25589;51.552;13.424;2022-09-09T06:51:18;16.30;99.90
39919;DHT22;25589;51.552;13.424;2022-09-09T06:53:46;16.90;99.90
39919;DHT22;25589;51.552;13.424;2022-09-09T06:58:41;17.00;99.90
39919;DHT22;25589;51.552;13.424;2022-09-09T07:01:15;17.00;99.90
39919;DHT22;25589;51.552;13.424;2022-09-09T07:03:42;17.20;99.90
39919;DHT22;25589;51.552;13.424;2022-09-09T07:06:20;17.20;99.90
39919;DHT22;25589;51.552;13.424;2022-09-09T07:08:53;17.20;99.90
39919;DHT22;25589;51.552;13.424;2022-09-09T07:11:25;17.20;99.90
39919;DHT22;25589;51.552;13.424;2022-09-09T07:13:52;17.40;99.90
39919;DHT22;25589;51.552;13.424;2022-09-09T07:16:20;17.50;99.90
39919;DHT22;25589;51.552;13.424;2022-09-09T07:18:47;17.50;99.90
39919;DHT22;25589;51.552;13.424;2022-09-09T07:21:14;17.50;99.90
39919;DHT22;25589;51.552;13.424;2022-09-09T07:23:41;17.60;99.90
39919;DHT22;25589;51.552;13.424;2022-09-09T07:26:15;17.50;99.90
39919;DHT22;25589;51.552;13.424;2022-09-09T07:28:41;17.70;99.90
39919;DHT22;25589;51.552;13.424;2022-09-09T07:31:13;17.90;99.90
39919;DHT22;25589;51.552;13.424;2022-09-09T07:33:40;17.90;99.90
39919;DHT22;25589;51.552;13.424;2022-09-09T07:36:09;17.60;99.90
39919;DHT22;25589;51.552;13.424;2022-09-09T07:38:41;18.20;99.90
39919;DHT22;25589;51.552;13.424;2022-09-09T07:41:11;18.20;99.90
39919;DHT22;25589;51.552;13.424;2022-09-09T07:43:39;18.40;99.90
39919;DHT22;25589;51.552;13.424;2022-09-09T07:46:06;18.60;99.90
39919;DHT22;25589;51.552;13.424;2022-09-09T07:48:32;18.70;99.90
39919;DHT22;25589;51.552;13.424;2022-09-09T07:51:10;18.70;99.90
39919;DHT22;25589;51.552;13.424;2022-09-09T07:53:38;18.90;99.90
39919;DHT22;25589;51.552;13.424;2022-09-09T07:56:10;19.00;99.90
39919;DHT22;25589;51.552;13.424;2022-09-09T07:58:38;19.10;99.90
39919;DHT22;25589;51.552;13.424;2022-09-09T08:01:07;19.10;99.90
39919;DHT22;25589;51.552;13.424;2022-09-09T08:03:34;19.20;99.90
39919;DHT22;25589;51.552;13.424;2022-09-09T08:06:01;19.20;99.90
39919;DHT22;25589;51.552;13.424;2022-09-09T08:08:28;19.30;99.90
39919;DHT22;25589;51.552;13.424;2022-09-09T08:11:22;19.30;99.90
39919;DHT22;25589;51.552;13.424;2022-09-09T08:13:49;19.30;99.90
39919;DHT22;25589;51.552;13.424;2022-09-09T08:16:18;19.30;99.90
39919;DHT22;25589;51.552;13.424;2022-09-09T08:18:44;19.30;99.90
39919;DHT22;25589;51.552;13.424;2022-09-09T08:21:12;19.10;99.90
39919;DHT22;25589;51.552;13.424;2022-09-09T08:23:43;19.40;99.90
39919;DHT22;25589;51.552;13.424;2022-09-09T08:26:12;19.30;99.90
39919;DHT22;25589;51.552;13.424;2022-09-09T08:28:39;19.40;99.90
39919;DHT22;25589;51.552;13.424;2022-09-09T08:31:07;19.40;99.90
39919;DHT22;25589;51.552;13.424;2022-09-09T08:33:33;19.50;99.90
39919;DHT22;25589;51.552;13.424;2022-09-09T08:35:59;19.60;99.90
39919;DHT22;25589;51.552;13.424;2022-09-09T08:38:25;19.70;99.90
39919;DHT22;25589;51.552;13.424;2022-09-09T08:40:53;19.80;99.90
39919;DHT22;25589;51.552;13.424;2022-09-09T08:43:28;19.90;99.90
39919;DHT22;25589;51.552;13.424;2022-09-09T08:46:23;19.90;99.90
39919;DHT22;25589;51.552;13.424;2022-09-09T08:49:35;19.90;99.90
39919;DHT22;25589;51.552;13.424;2022-09-09T08:51:39;20.10;99.90
39919;DHT22;25589;51.552;13.424;2022-09-09T08:54:04;20.20;99.90
39919;DHT22;25589;51.552;13.424;2022-09-09T08:56:32;20.50;99.90
39919;DHT22;25589;51.552;13.424;2022-09-09T08:59:00;20.30;99.90
39919;DHT22;25589;51.552;13.424;2022-09-09T09:04:38;20.70;99.90
39919;DHT22;25589;51.552;13.424;2022-09-09T09:07:46;20.90;99.90
39919;DHT22;25589;51.552;13.424;2022-09-09T09:10:45;21.00;99.90
39919;DHT22;25589;51.552;13.424;2022-09-09T09:16:19;21.00;99.90
39919;DHT22;25589;51.552;13.424;2022-09-09T09:18:48;20.90;99.90
39919;DHT22;25589;51.552;13.424;2022-09-09T09:21:41;20.90;99.90
39919;DHT22;25589;51.552;13.424;2022-09-09T09:24:41;20.80;99.90
39919;DHT22;25589;51.552;13.424;2022-09-09T09:27:16;20.80;99.90
39919;DHT22;25589;51.552;13.424;2022-09-09T09:29:49;20.70;99.90
39919;DHT22;25589;51.552;13.424;2022-09-09T09:32:18;20.70;99.90
39919;DHT22;25589;51.552;13.424;2022-09-09T09:34:53;20.60;99.90
39919;DHT22;25589;51.552;13.424;2022-09-09T09:37:32;20.50;99.90
39919;DHT22;25589;51.552;13.424;2022-09-09T09:40:11;20.50;99.90
39919;DHT22;25589;51.552;13.424;2022-09-09T09:42:47;20.60;99.90
39919;DHT22;25589;51.552;13.424;2022-09-09T09:45:33;20.60;99.90
39919;DHT22;25589;51.552;13.424;2022-09-09T09:48:02;21.10;99.90
39919;DHT22;25589;51.552;13.424;2022-09-09T09:50:30;21.00;99.90
39919;DHT22;25589;51.552;13.424;2022-09-09T09:52:59;21.10;99.90
39919;DHT22;25589;51.552;13.424;2022-09-09T09:55:29;21.30;99.90
39919;DHT22;25589;51.552;13.424;2022-09-09T09:58:13;21.30;99.90
39919;DHT22;25589;51.552;13.424;2022-09-09T10:00:51;21.30;99.90
39919;DHT22;25589;51.552;13.424;2022-09-09T10:03:31;21.20;99.90
39919;DHT22;25589;51.552;13.424;2022-09-09T10:06:00;21.40;99.90
39919;DHT22;25589;51.552;13.424;2022-09-09T10:08:26;21.40;99.90
39919;DHT22;25589;51.552;13.424;2022-09-09T10:16:08;21.70;99.90
39919;DHT22;25589;51.552;13.424;2022-09-09T10:19:13;21.80;99.90
39919;DHT22;25589;51.552;13.424;2022-09-09T10:31:04;22.30;99.90
39919;DHT22;25589;51.552;13.424;2022-09-09T10:36:21;22.40;99.90
39919;DHT22;25589;51.552;13.424;2022-09-09T10:39:37;22.40;99.90
39919;DHT22;25589;51.552;13.424;2022-09-09T10:41:54;22.40;99.90
39919;DHT22;25589;51.552;13.424;2022-09-09T10:50:31;22.40;99.90
39919;DHT22;25589;51.552;13.424;2022-09-09T10:53:14;22.30;99.90
39919;DHT22;25589;51.552;13.424;2022-09-09T10:55:48;22.60;99.90
39919;DHT22;25589;51.552;13.424;2022-09-09T10:58:24;22.80;99.90
39919;DHT22;25589;51.552;13.424;2022-09-09T11:00:59;23.00;99.90
39919;DHT22;25589;51.552;13.424;2022-09-09T11:03:29;23.20;99.90
39919;DHT22;25589;51.552;13.424;2022-09-09T11:06:09;23.40;99.90
39919;DHT22;25589;51.552;13.424;2022-09-09T11:08:38;23.50;99.90
39919;DHT22;25589;51.552;13.424;2022-09-09T11:11:17;23.60;99.90
39919;DHT22;25589;51.552;13.424;2022-09-09T11:16:34;23.90;99.90
39919;DHT22;25589;51.552;13.424;2022-09-09T11:19:09;24.10;99.90
39919;DHT22;25589;51.552;13.424;2022-09-09T11:21:44;24.30;99.90
39919;DHT22;25589;51.552;13.424;2022-09-09T11:24:20;24.40;99.90
39919;DHT22;25589;51.552;13.424;2022-09-09T11:26:55;24.60;99.90
39919;DHT22;25589;51.552;13.424;2022-09-09T11:32:46;24.70;99.90
39919;DHT22;25589;51.552;13.424;2022-09-09T11:38:27;24.60;99.90
39919;DHT22;25589;51.552;13.424;2022-09-09T11:41:00;24.50;99.90
39919;DHT22;25589;51.552;13.424;2022-09-09T11:43:31;24.50;99.90
39919;DHT22;25589;51.552;13.424;2022-09-09T11:46:00;24.70;99.90
39919;DHT22;25589;51.552;13.424;2022-09-09T11:48:37;25.00;99.90
39919;DHT22;25589;51.552;13.424;2022-09-09T11:51:12;25.30;99.90
39919;DHT22;25589;51.552;13.424;2022-09-09T11:53:50;25.20;99.90
39919;DHT22;25589;51.552;13.424;2022-09-09T11:56:25;25.00;99.90
39919;DHT22;25589;51.552;13.424;2022-09-09T11:59:16;24.90;99.90
39919;DHT22;25589;51.552;13.424;2022-09-09T12:01:45;24.80;99.90
39919;DHT22;25589;51.552;13.424;2022-09-09T12:04:21;24.80;99.90
39919;DHT22;25589;51.552;13.424;2022-09-09T12:09:52;25.10;99.90
39919;DHT22;25589;51.552;13.424;2022-09-09T12:12:23;25.40;99.90
39919;DHT22;25589;51.552;13.424;2022-09-09T12:14:56;25.60;99.90
39919;DHT22;25589;51.552;13.424;2022-09-09T12:17:23;25.80;99.90
39919;DHT22;25589;51.552;13.424;2022-09-09T12:20:02;25.80;99.90
39919;DHT22;25589;51.552;13.424;2022-09-09T12:22:51;26.10;99.90
39919;DHT22;25589;51.552;13.424;2022-09-09T12:28:18;26.60;99.90
39919;DHT22;25589;51.552;13.424;2022-09-09T12:33:37;26.40;99.90
39919;DHT22;25589;51.552;13.424;2022-09-09T12:36:04;26.70;99.90
39919;DHT22;25589;51.552;13.424;2022-09-09T12:38:37;27.00;99.90
39919;DHT22;25589;51.552;13.424;2022-09-09T12:41:03;27.00;99.90
39919;DHT22;25589;51.552;13.424;2022-09-09T12:43:29;26.60;99.90
39919;DHT22;25589;51.552;13.424;2022-09-09T12:46:11;26.40;99.90
39919;DHT22;25589;51.552;13.424;2022-09-09T12:48:42;26.10;99.90
39919;DHT22;25589;51.552;13.424;2022-09-09T12:51:28;25.80;99.90
39919;DHT22;25589;51.552;13.424;2022-09-09T12:53:55;25.60;99.90
39919;DHT22;25589;51.552;13.424;2022-09-09T12:56:23;25.50;99.90
39919;DHT22;25589;51.552;13.424;2022-09-09T12:58:53;25.50;99.90
39919;DHT22;25589;51.552;13.424;2022-09-09T13:01:25;25.60;99.90
39919;DHT22;25589;51.552;13.424;2022-09-09T13:03:51;26.00;99.90
39919;DHT22;25589;51.552;13.424;2022-09-09T13:06:23;26.10;99.90
39919;DHT22;25589;51.552;13.424;2022-09-09T13:08:51;26.30;99.90
39919;DHT22;25589;51.552;13.424;2022-09-09T13:11:25;26.50;98.50
39919;DHT22;25589;51.552;13.424;2022-09-09T13:13:56;26.70;98.00
39919;DHT22;25589;51.552;13.424;2022-09-09T13:16:22;26.80;96.70
39919;DHT22;25589;51.552;13.424;2022-09-09T13:18:50;26.80;96.00
39919;DHT22;25589;51.552;13.424;2022-09-09T13:21:17;26.90;94.20
39919;DHT22;25589;51.552;13.424;2022-09-09T13:23:49;27.00;93.20
39919;DHT22;25589;51.552;13.424;2022-09-09T13:26:24;27.00;92.30
39919;DHT22;25589;51.552;13.424;2022-09-09T13:28:50;27.00;91.70
39919;DHT22;25589;51.552;13.424;2022-09-09T13:31:30;27.10;91.00
39919;DHT22;25589;51.552;13.424;2022-09-09T13:33:56;27.30;90.70
39919;DHT22;25589;51.552;13.424;2022-09-09T13:36:33;27.40;90.20
39919;DHT22;25589;51.552;13.424;2022-09-09T13:39:01;27.20;89.70
39919;DHT22;25589;51.552;13.424;2022-09-09T13:41:34;27.20;91.20
39919;DHT22;25589;51.552;13.424;2022-09-09T13:44:01;27.40;90.10
39919;DHT22;25589;51.552;13.424;2022-09-09T13:46:39;27.80;90.60
39919;DHT22;25589;51.552;13.424;2022-09-09T13:51:48;28.20;86.70
39919;DHT22;25589;51.552;13.424;2022-09-09T13:54:17;28.40;85.70
39919;DHT22;25589;51.552;13.424;2022-09-09T13:56:44;28.60;85.70
39919;DHT22;25589;51.552;13.424;2022-09-09T13:59:15;28.70;83.80
39919;DHT22;25589;51.552;13.424;2022-09-09T14:01:41;28.50;84.50
39919;DHT22;25589;51.552;13.424;2022-09-09T14:04:07;28.10;85.30
39919;DHT22;25589;51.552;13.424;2022-09-09T14:06:34;27.80;85.00
39919;DHT22;25589;51.552;13.424;2022-09-09T14:09:02;27.50;84.50
39919;DHT22;25589;51.552;13.424;2022-09-09T14:11:28;27.20;86.30
39919;DHT22;25589;51.552;13.424;2022-09-09T14:13:53;27.10;87.40
39919;DHT22;25589;51.552;13.424;2022-09-09T14:16:19;27.20;87.20
39919;DHT22;25589;51.552;13.424;2022-09-09T14:18:47;27.60;87.20
39919;DHT22;25589;51.552;13.424;2022-09-09T14:21:12;28.10;86.60
39919;DHT22;25589;51.552;13.424;2022-09-09T14:23:38;28.40;84.90
39919;DHT22;25589;51.552;13.424;2022-09-09T14:26:05;28.60;83.10
39919;DHT22;25589;51.552;13.424;2022-09-09T14:28:31;28.70;82.10
39919;DHT22;25589;51.552;13.424;2022-09-09T14:31:00;28.80;82.00
39919;DHT22;25589;51.552;13.424;2022-09-09T14:33:26;28.50;79.60
39919;DHT22;25589;51.552;13.424;2022-09-09T14:35:58;28.30;81.20
39919;DHT22;25589;51.552;13.424;2022-09-09T14:38:25;28.00;81.60
39919;DHT22;25589;51.552;13.424;2022-09-09T14:40:50;27.90;81.30
39919;DHT22;25589;51.552;13.424;2022-09-09T14:43:16;27.80;82.80
39919;DHT22;25589;51.552;13.424;2022-09-09T14:45:41;27.60;85.30
39919;DHT22;25589;51.552;13.424;2022-09-09T14:48:08;27.60;87.40
39919;DHT22;25589;51.552;13.424;2022-09-09T14:50:34;27.50;85.40
39919;DHT22;25589;51.552;13.424;2022-09-09T14:53:02;27.80;83.50
39919;DHT22;25589;51.552;13.424;2022-09-09T14:55:27;28.00;83.00
39919;DHT22;25589;51.552;13.424;2022-09-09T14:57:54;28.30;85.00
39919;DHT22;25589;51.552;13.424;2022-09-09T15:00:20;28.70;85.10
39919;DHT22;25589;51.552;13.424;2022-09-09T15:02:45;29.10;84.30
39919;DHT22;25589;51.552;13.424;2022-09-09T15:05:11;28.80;84.10
39919;DHT22;25589;51.552;13.424;2022-09-09T15:07:36;29.10;84.40
39919;DHT22;25589;51.552;13.424;2022-09-09T15:10:04;29.60;83.60
39919;DHT22;25589;51.552;13.424;2022-09-09T15:12:29;29.90;77.60
39919;DHT22;25589;51.552;13.424;2022-09-09T15:14:55;30.20;78.80
39919;DHT22;25589;51.552;13.424;2022-09-09T15:17:21;30.40;74.20
39919;DHT22;25589;51.552;13.424;2022-09-09T15:19:47;30.60;69.60
39919;DHT22;25589;51.552;13.424;2022-09-09T15:22:12;30.10;66.30
39919;DHT22;25589;51.552;13.424;2022-09-09T15:24:38;29.30;68.20
39919;DHT22;25589;51.552;13.424;2022-09-09T15:27:04;28.50;72.60
39919;DHT22;25589;51.552;13.424;2022-09-09T15:29:30;28.00;73.90
39919;DHT22;25589;51.552;13.424;2022-09-09T15:31:55;27.60;75.10
39919;DHT22;25589;51.552;13.424;2022-09-09T15:34:21;27.30;76.10
39919;DHT22;25589;51.552;13.424;2022-09-09T15:36:47;26.90;78.10
39919;DHT22;25589;51.552;13.424;2022-09-09T15:39:15;26.70;79.10
39919;DHT22;25589;51.552;13.424;2022-09-09T15:41:45;26.60;79.90
39919;DHT22;25589;51.552;13.424;2022-09-09T15:44:12;26.40;81.20
39919;DHT22;25589;51.552;13.424;2022-09-09T15:46:44;26.30;82.10
39919;DHT22;25589;51.552;13.424;2022-09-09T15:49:14;26.10;83.50
39919;DHT22;25589;51.552;13.424;2022-09-09T15:51:42;26.10;83.70
39919;DHT22;25589;51.552;13.424;2022-09-09T15:54:16;25.90;84.60
39919;DHT22;25589;51.552;13.424;2022-09-09T15:56:44;25.60;86.20
39919;DHT22;25589;51.552;13.424;2022-09-09T15:59:10;25.60;86.00
39919;DHT22;25589;51.552;13.424;2022-09-09T16:01:38;25.40;86.30
39919;DHT22;25589;51.552;13.424;2022-09-09T16:04:07;25.60;87.10
39919;DHT22;25589;51.552;13.424;2022-09-09T16:06:33;26.50;84.80
39919;DHT22;25589;51.552;13.424;2022-09-09T16:08:59;28.10;78.80
39919;DHT22;25589;51.552;13.424;2022-09-09T16:11:37;28.10;79.20
39919;DHT22;25589;51.552;13.424;2022-09-09T16:14:03;28.50;78.30
39919;DHT22;25589;51.552;13.424;2022-09-09T16:16:29;28.20;79.50
39919;DHT22;25589;51.552;13.424;2022-09-09T16:18:57;27.90;81.90
39919;DHT22;25589;51.552;13.424;2022-09-09T16:21:26;27.60;83.50
39919;DHT22;25589;51.552;13.424;2022-09-09T16:23:55;27.50;84.60
39919;DHT22;25589;51.552;13.424;2022-09-09T16:26:21;27.40;86.50
39919;DHT22;25589;51.552;13.424;2022-09-09T16:28:47;27.70;86.30
39919;DHT22;25589;51.552;13.424;2022-09-09T16:31:19;27.40;86.40
39919;DHT22;25589;51.552;13.424;2022-09-09T16:33:46;27.60;86.40
39919;DHT22;25589;51.552;13.424;2022-09-09T16:36:17;27.70;87.10
39919;DHT22;25589;51.552;13.424;2022-09-09T16:38:42;27.90;86.10
39919;DHT22;25589;51.552;13.424;2022-09-09T16:41:09;28.20;85.50
39919;DHT22;25589;51.552;13.424;2022-09-09T16:43:36;27.90;85.60
39919;DHT22;25589;51.552;13.424;2022-09-09T16:46:03;27.90;86.60
39919;DHT22;25589;51.552;13.424;2022-09-09T16:48:33;27.90;87.30
39919;DHT22;25589;51.552;13.424;2022-09-09T16:51:06;28.10;87.30
39919;DHT22;25589;51.552;13.424;2022-09-09T16:53:35;28.50;86.60
39919;DHT22;25589;51.552;13.424;2022-09-09T16:56:08;28.40;85.10
39919;DHT22;25589;51.552;13.424;2022-09-09T16:58:34;27.40;87.50
39919;DHT22;25589;51.552;13.424;2022-09-09T17:01:00;27.10;89.60
39919;DHT22;25589;51.552;13.424;2022-09-09T17:03:27;26.90;90.40
39919;DHT22;25589;51.552;13.424;2022-09-09T17:05:53;26.80;90.70
39919;DHT22;25589;51.552;13.424;2022-09-09T17:08:18;26.40;91.20
39919;DHT22;25589;51.552;13.424;2022-09-09T17:10:44;25.60;92.00
39919;DHT22;25589;51.552;13.424;2022-09-09T17:13:10;25.60;93.10
39919;DHT22;25589;51.552;13.424;2022-09-09T17:15:42;25.90;92.70
39919;DHT22;25589;51.552;13.424;2022-09-09T17:18:10;26.30;92.20
39919;DHT22;25589;51.552;13.424;2022-09-09T17:20:36;26.50;92.00
39919;DHT22;25589;51.552;13.424;2022-09-09T17:23:02;26.40;92.30
39919;DHT22;25589;51.552;13.424;2022-09-09T17:25:28;26.30;92.90
39919;DHT22;25589;51.552;13.424;2022-09-09T17:27:53;26.00;93.50
39919;DHT22;25589;51.552;13.424;2022-09-09T17:30:19;25.50;94.00